Racecast

Logan Thomas

Temperance Bedford (MI) · 11 · SECMI D1MONROE · Compare head to head

Athlete rating 125.8 2026 TF season
Best race 130.3 XC
Races 138
Seasons 7 2020 — 2026

RankedNation #6048·MI #214·MI D1 #126·SEC #15·Team #2 ?

Rating scale ?
Speed rating — all races

Cross Country

XC speed rating

2025 XC 113.0

Temperance Bedford (MI) · Grade 11

Date Meet Event Result Place Rating Difficulty PR/SR Flags
2025-10-25 Lake Erie Metro Park OFFICIAL 5000m 18:52.8 64th · 6th on team 107.9 +0.007
2025-10-16 Hudson Mills Metropark - OFFICIAL 5000m 18:05.5 39th · 4th on team 112.2 -0.006 CSR
2025-10-11 Munson Park 5000m 18:28.1 15th · 4th on team 111.2 +0.007 CSR
2025-09-27 Lake Erie Metro Park OFFICIAL 5000m 17:18.4 21st · 4th on team 119.7 +0.007 SR CSR RSR
2025-09-25 Indian Creek OFFICIAL 5000m 17:28.9 35th · 4th on team 116.6 +0.004 ★CR SR CSR RSR
2025-09-20 Ella Sharp Park OFFICIAL 5000m 17:37.5 163rd · 4th on team 115.6 -0.001 SR CSR RSR
2025-09-09 Willow Metropark OFFICIAL 5000m 17:58.4 57th · 4th on team 113.8 -0.003 ★CR CSR RSR
2025-08-30 Bowling Green 5000m 17:57.4 91st · 4th on team 113.1 -0.003 ★CR SR CSR RSR
2025-08-30 BGSU 5000m 17:57.4 91st · 4th on team 112.9 -0.003 ★CR CSR
2025-08-22 Saline High School 5000m 18:52.8 24th · 4th on team 107.3 -0.009 SR CSR RSR

2024 XC 116.2

Temperance Bedford (MI) · Grade 10

Date Meet Event Result Place Rating Difficulty PR/SR Flags
2024-11-02 Michigan International Speedway (MIS) 5000m 16:51 171st · 5th on team 120.1 -0.006 ★PR ★CR SR CSR RSR
2024-10-26 Lake Erie Metro Park OFFICIAL 5000m 17:16.5 25th · 5th on team 119.2 +0.007 ★CR CSR RSR
2024-10-17 Hudson Mills Metropark - OFFICIAL 5000m 17:13.96 24th · 4th on team 118.2 -0.006 PR ★CR SR CSR
2024-10-12 Munson Park 5000m 17:47.6 3rd · 2nd on team 115.9 +0.007 ★CR CSR
2024-09-28 Lake Erie Metro Park OFFICIAL 5000m 17:22.5 15th · 4th on team 118.5 +0.007 CR CSR RSR
2024-09-24 Pioneer HS 5000m 18:14.1 37th · 5th on team 114.4 +0.018 ★CR CSR
2024-09-21 Ella Sharp Park OFFICIAL 5000m 17:25.8 143rd · 4th on team 117.5 -0.001 ★CR CSR
2024-09-10 Willow Metropark OFFICIAL 5000m 18:27.6 49th · 5th on team 111.0 -0.003 CR CSR
2024-09-07 Hedges Boyer Park 5000m 17:17.3 88th · 3rd on team 117.8 -0.003 PR ★CR SR CSR RSR
2024-08-31 BGSU 5000m 18:23.6 55th · 4th on team 110.7 -0.003 CR CSR
2024-08-23 Ford Field/EE Ice Arena(LIVONIA) OFFICIAL 5000m 18:08.3 73rd · 7th on team 114.4 +0.013 ★CR SR CSR RSR

2023 XC 110.9

Temperance Bedford (MI) · Grade 9

Date Meet Event Result Place Rating Difficulty PR/SR Flags
2023-10-28 Lake Erie Metro Park OFFICIAL 5000m 17:30.7 8th · 1st on team 117.8 +0.007 PR CR SR CSR RSR
2023-10-19 Hudson Mills Metropark - OFFICIAL 5000m 18:30.81 18th · 3rd on team 110.1 -0.006 CR CSR
2023-10-14 Munson Park 5000m 18:38.2 7th · 3rd on team 111.5 +0.007 CR CSR
2023-09-30 Lake Erie Metro Park OFFICIAL 5000m 18:40.5 2nd · 2nd on team 110.9 +0.007 CR CSR
2023-09-27 Saline High School 5000m 17:43.2 7th · 2nd on team 114.7 -0.009 PR ★CR SR CSR RSR
2023-09-16 Ottawa Park Golf Course 5000m 19:02.9 33rd · 5th on team 107.6 -0.001 ★CR CSR
2023-09-13 Indian Creek OFFICIAL 5000m 18:44.8 19th · 5th on team 109.9 +0.004 PR CR SR CSR RSR
2023-09-02 Forest Creason Golf Course 5000m 18:59.3 75th · 7th on team 108.6 -0.002 PR ★CR SR CSR RSR
2023-08-18 Ford Field/EE Ice Arena(LIVONIA) OFFICIAL 5000m 19:23 36th · 5th on team 106.7 +0.013 PR CR SR CSR RSR

2022 XC 124.6

Temperance Bedford (MI) · Grade 8

Date Meet Event Result Place Rating Difficulty PR/SR Flags
2022-10-22 Hudson HS 3218m 11:31.1 9th · 2nd on team 129.9 -0.009 ★PR ★CR SR CSR
2022-10-19 Saline High School 3218m 11:56.9 11th · 2nd on team 124.8 -0.021 ★CR CSR
2022-10-15 Munson Park 3200m 11:48.2 5th · 2nd on team 127.3 +0.000 ★PR ★CR SR CSR
2022-10-08 Monroe Township Stoneco Park 3218m 11:44 3rd · 3rd on team 125.0 -0.030 ★CR CSR
2022-10-05 Tecumseh HS 3218m 11:50.8 11th · 2nd on team 126.7 -0.008 ★CR CSR
2022-10-01 Lake Erie Metro Park OFFICIAL 3218m 11:37.1 6th · 3rd on team 130.3 -0.000 PR ★CR ★R SR CSR RSR
2022-09-23 Ella Sharp Park OFFICIAL 3218m 12:16.3 19th · 3rd on team 124.3 +0.004 PR ★CR R SR CSR RSR
2022-09-21 Manly W. Bennett Park 3218m 12:59.4 15th · 2nd on team 123.3 +0.058 ★CR R SR CSR RSR
2022-09-17 Ottawa Park Golf Course 3200m 12:40.1 14th · 3rd on team 122.9 +0.027 PR ★CR R SR CSR RSR
2022-09-10 Hedges Boyer Park 2816m 12:06.8 22nd · 3rd on team 111.2 ★PR ★CR SR CSR RSR

2021 XC 110.8

Temperance Bedford (MI) · Grade 7

Date Meet Event Result Place Rating Difficulty PR/SR Flags
2021-10-20 Munson Park 3200m 13:33.7 30th · 8th on team 112.5 +0.000 PR CR SR CSR
2021-10-16 Munson Park 3200m 14:06.7 25th · 12th on team 108.0 +0.000 CR CSR
2021-10-09 Monroe Township Stoneco Park 3218m 12:56.9 19th · 9th on team 115.0 -0.030 PR CR SR CSR
2021-10-06 Hudson Mills Metropark - OFFICIAL 3000m 13:12.3 37th · 9th on team 109.6 -0.022 ★PR ★CR SR CSR
2021-10-02 Lake Erie Metro Park OFFICIAL 3218m 13:12.3 36th · 7th on team 115.9 -0.000 PR CR R SR CSR RSR
2021-09-24 Ella Sharp Park OFFICIAL 3218m 13:50.6 64th · 11th on team 112.7 +0.004 PR CR SR CSR
2021-09-18 Ottawa Park Golf Course 3200m 13:46.4 74th · 12th on team 113.4 +0.027 PR CR R SR CSR RSR
2021-09-11 Hedges Boyer Park 3200m 14:13.1 57th · 4th on team 109.1 +0.015 ★CR R SR CSR RSR
2021-09-01 Eastwood High School 3200m 15:39 62nd · 10th on team 100.8 +0.037 ★CR SR CSR RSR

2020 XC 97.2

Temperance Bedford (MI) · Grade 6

Date Meet Event Result Place Rating Difficulty PR/SR Flags
2020-10-14 Indian Creek OFFICIAL 3200m 14:04 29th · 25th on team 106.5 -0.001 PR ★CR R SR CSR RSR
2020-10-07 Hudson Mills Metropark - OFFICIAL 3218m 16:02.9 32nd · 23rd on team 98.3 +0.020 ★CR CSR
2020-09-24 Indian Creek OFFICIAL 3200m 15:51 38th · 29th on team 96.4 -0.001 PR CR SR CSR
2020-09-19 Indian Creek OFFICIAL 3218m 14:48 24th · 21st on team 101.6 -0.001 PR ★CR R SR CSR RSR
2020-09-16 Rolling Hills 3218m 15:57.9 26th · 24th on team 99.5 +0.023 PR ★CR R SR CSR RSR
2020-09-09 Indian Creek OFFICIAL 3200m 16:06 30th · 30th on team 92.8 -0.001 PR CR R SR CSR RSR
2020-08-29 Indian Creek OFFICIAL 3200m 17:47 30th · 30th on team 85.4 -0.001 PR CR R SR CSR RSR

Track & Field

TF speed rating

2026 TF 122.9

Temperance Bedford (MI) · Grade 11

Date Meet Event Result Place Rating Difficulty PR/SR Flags
2026-05-26 2026 Larry Steeb Memorial Meet of Champions 800m 1:57.94 10th · 1st on team 128.7 -0.027 ★PR SR RSR
2026-05-22 2026 MITCA D1 Team State 800m 2:04.48 22nd · 3rd on team 121.5 -0.031
2026-05-15 MHSAA LP Region 05-1 @ Saline 800m 2:04.79 15th · 3rd on team 120.9 -0.033
2026-05-07 SEC-HS Red Championship (EQ Approved) 800m 2:02.27 7th · 2nd on team 124.6 -0.024
2026-05-01 2026 Saline Golden Triangle (EQ Approved) 800m 2:00.9 11th · 2nd on team 124.8 -0.033
2026-04-28 SEC-HS: Bedford @ Monroe 800m 2:01.12 1st · 1st on team 126.0 -0.022
2026-04-25 Railsplitter Invite (EQ approved) 400m 51.12 3rd · 1st on team -0.021 ★PR SR
2026-04-20 SEC-HS: Bedford @ Pioneer 800m 2:01.7 2nd · 1st on team 126.0 -0.017 RSR
2026-04-17 6th Toledo St. John's Jesuit Titan Invite 800m 1:59.9 3rd · 1st on team 125.6 -0.035 PR SR RSR
2026-04-14 SEC-HS: Huron & Saline at Bedford 800m 2:02.22 2nd · 1st on team 124.4 -0.026 SR RSR
2026-04-10 Whitmer Gold W Invite 400m 52.91 2nd · 1st on team -0.034
2026-04-07 SEC-HS: Bedford & Dexter @ Skyline 400m 51.88 2nd · 1st on team -0.021
2026-03-26 Lincoln Indoor Invite 400m 51.62 1st · 1st on team -0.029 PR SR
2026-02-07 LAB Indoor Meet #9 400m 53.63 37th · 2nd on team -0.029 PR SR
2026-01-10 LAB Indoor Meet #5 400m 54.31 18th · 1st on team -0.029 PR SR
2026-01-02 KYA HS Indoor Classic 800m 2:03.68 22nd · 3rd on team 121.5 -0.041
2026-01-02 KYA HS Indoor Classic 1mile 4:54.43 53rd · 3rd on team 114.7 -0.041 ★PR SR
2025-12-27 LAB Holiday Invite 800m 2:03.08 10th · 3rd on team 123.0 -0.029 SR RSR
2025-08-02 AAU Junior Olympic Games 1500m 4:29.49 44th · 2nd on team 116.0 -0.032 SR RSR

2025 TF 121.8

Unattached (TX) · Grade 10

Date Meet Event Result Place Rating Difficulty PR/SR Flags
2025-06-26 AAU Track & Field Region 12 Qualifier 1500m 4:20.22 4th · 2nd on team 121.7 -0.021 ★PR SR
2025-06-26 AAU Track & Field Region 12 Qualifier 2ksteeple 6:40 1st · 1st on team -0.021 ★PR SR
2025-05-27 25 Larry Steeb Memorial Meet of Champions 800m 2:00.91 15th · 3rd on team 125.5 -0.027 PR SR RSR
2025-05-23 2025 MITCA D1 Team State 800m 2:07.08 19th · 3rd on team 120.0 -0.031
2025-05-16 MHSAA LP Region 05-1 @ Ypsi Lincoln 800m 2:25.86 27th · 2nd on team -0.021
2025-05-08 SEC-HS Championship (Red) (EQ Approved) 800m 2:03.23 8th · 2nd on team 123.9 -0.026
2025-04-29 SEC-HS: Lincoln @ Bedford 800m 2:04.63 2nd · 1st on team 122.9 -0.026
2025-04-26 2025 April Showers Invitational (EQ Approved) 800m 2:02.15 4th · 2nd on team 124.5 -0.027
2025-04-22 SEC-HS: Bedford & Pioneer @ Monroe 800m 2:01.9 3rd · 2nd on team 124.7 -0.022 PR SR RSR
2025-04-19 5th Titan Varsity Invite 800m 2:03.35 7th · 2nd on team 122.4 -0.035 PR SR
2025-04-15 SEC-HS: Bedford & Dexter @ Skyline 800m 2:07.07 2nd · 1st on team 121.2 -0.021
2025-04-11 Whitmer Gold W 2025 hj 5-02.00 -0.034
2025-04-11 Whitmer Gold W 2025 hj 5-02.00 -0.034
2025-04-07 SEC-HS: Huron & Saline @ Bedford 800m 2:07.86 4th · 2nd on team 118.9 -0.026
2025-03-20 '25 Lincoln Spring Indoor Classic 800m 2:04.47 3rd · 1st on team 121.6 -0.029
2025-02-08 LAB Indoor Meet #9 800m 2:03.4 16th · 2nd on team 122.7 -0.029 PR SR RSR
2025-01-11 LAB Indoor Meet #5 800m 2:06.04 16th · 3rd on team 120.1 -0.029 SR RSR
2024-12-27 LAB Holiday Invite 800m 2:11.62 20th · 2nd on team 115.2 -0.029 SR RSR
2024-12-21 LAB Indoor Meet #2 lj 16' 8 -0.029
2024-12-21 LAB Indoor Meet #2 60m 7.74 90th · 2nd on team -0.029 ★PR SR

2024 TF 118.0

Frog Leg Track Club (MI) · Grade 9

Date Meet Event Result Place Rating Difficulty PR/SR Flags
2024-06-30 Area 12 Regional Qualifier hj 5-04.00 -0.026
2024-06-30 Area 12 Regional Qualifier 800m 2:05.21 8th · 2nd on team 121.5 -0.026 PR SR RSR
2024-05-24 2024 MITCA D1 Team State hj 5' 4 -0.031
2024-05-24 2024 MITCA D1 Team State 400m 55.28 29th · 2nd on team -0.031
2024-05-23 Dundee Jim Beck Freshman Invite hj 5' 6 -0.016
2024-05-17 MHSAA LP Region 05-1 @ Ypsi Lincoln hj NH -0.021
2024-05-17 MHSAA LP Region 05-1 @ Ypsi Lincoln 400m 56.23 21st · 2nd on team -0.021
2024-05-09 SEC-HS: Championship (Red) hj 5' 6 -0.022
2024-05-09 SEC-HS: Championship (Red) 400m 54.85 17th · 2nd on team -0.022 PR SR
2024-05-03 Clay Eagle Invitational hj 5-06 -0.033
2024-04-30 SEC-HS: Bedford @ Lincoln hj 5' 10 -0.021
2024-04-30 SEC-HS: Bedford @ Lincoln 800m 2:09.09 7th · 5th on team 118.1 -0.021 PR SR RSR
2024-04-26 Knight Relays hj 5-00 -0.033
2024-04-16 SEC-HS: Skyline & Bedford at Dexter hj 5' 10 -0.027
2024-04-10 2024 Springfield Track & Field Invitational hj 5-04.00 -0.020
2024-04-09 SEC HS: Huron & Saline at Bedford hj 5' 8 -0.026
2024-04-09 SEC HS: Huron & Saline at Bedford 400m 56.54 8th · 2nd on team -0.026 PR SR
2024-04-05 Whitmer Gold W 2024 hj 5-06.00 -0.034
2024-03-21 '24 SEC Invite hj 5' 8 -0.029
2024-03-21 '24 SEC Invite 800m 2:12.53 17th · 3rd on team 114.4 -0.029 PR SR RSR

2023 TF

Temperance Bedford (MI) · Grade 8

Date Meet Event Result Place Rating Difficulty PR/SR Flags
2023-05-22 SEC-MS: Championship hj 5' 2 -0.033
2023-05-22 SEC-MS: Championship 400m 1:10.36 24th · 3rd on team -0.033
2023-05-17 23 Saline Middle School Hornet Relays hj 5' 2 -0.033
2023-05-15 SEC-MS: Lincoln & Bedford @ Monroe hj 5' 0 -0.022
2023-05-15 SEC-MS: Lincoln & Bedford @ Monroe 400m 59.83 1st · 1st on team -0.022
2023-05-08 SEC-MS Chelsea & Ypsi @Bedford hj 5-4.0 -0.026
2023-05-08 SEC-MS Chelsea & Ypsi @Bedford 400m 59.14 1st · 1st on team -0.026 PR SR
2023-05-04 SEC-MS Bedford at Saline hj 5' 4 -0.030
2023-05-04 SEC-MS Bedford at Saline 400m 1:00.53 2nd · 1st on team -0.030 PR SR
2023-04-27 SEC-MS: Bedford @ Pinckney hj 5' 0 -0.020
2023-04-27 SEC-MS: Bedford @ Pinckney 400m 1:02.14 1st · 1st on team -0.020 PR SR

2022 TF 109.7

Temperance Bedford (MI) · Grade 7

Date Meet Event Result Place Rating Difficulty PR/SR Flags
2022-05-18 22 Middle School Hornet Relays 1600m 6:05.69 39th · 8th on team 109.7 -0.033 ★PR SR RSR
2022-05-09 SEC-MS Tecumseh @ Bedford hj 5-0.0 -0.026
2022-05-09 SEC-MS Tecumseh @ Bedford 400m 1:05.34 5th · 4th on team -0.026
2022-05-04 SEC MS: Bedford and Lincoln @ Adrian hj 4' 10 -0.018
2022-05-04 SEC MS: Bedford and Lincoln @ Adrian 400m 1:04.97 7th · 5th on team -0.018
2022-04-28 SEC-MS Monroe @ Bedford hj 5'00.00 -0.026
2022-04-28 SEC-MS Monroe @ Bedford 400m 1:04.76 4th · 4th on team -0.026 PR SR
2022-04-25 SEC MS: Lincoln @ Bedford hj 4'10.00 -0.026
2022-04-25 SEC MS: Lincoln @ Bedford 400m 1:07.18 6th · 4th on team -0.026 PR SR
2022-04-12 Whitmer Panther Middle School Relays hj 4-06.00 -0.034

2021 TF

Temperance Bedford (MI) · Grade 6

Date Meet Event Result Place Rating Difficulty PR/SR Flags
2021-05-10 Adrian MS @ Bedford MS 400m 1:12.55 9th · 6th on team -0.026 PR SR
2021-05-10 Adrian MS @ Bedford MS 200m 31.93 12th · 11th on team -0.026 ★PR SR